Antalya, Turkey
Current Conditions -  °F | °C
As of 9:20 PM on Monday 22 Dec 2014 (Local Time) from LTAI Reporting Station
Clear Clear  
Wind Chill: 50°   Ceiling: Unl
Heat Index: 50°   Visibility: 6mi
Dew Point: 19°   Wind: 20mph
Humidity: 30%   Direction: 340°NNW
Pressure: 30.12"   Gusts: NA
Location:  36.89°N, 30.71°E
Report Text: LTAI 221820Z 34017KT CAVOK 10/M07 Q1020 NOSIG
Loading
Personal Weather Stations






























Interactive Weather Map New forecast layout! Learn more

10-Day Weather Forecast

Advertisements
Track Severe Weather on mobile